createdAt,value
2018-09-30T00:01:34.820Z,5.30
2018-09-30T00:04:02.189Z,5.90
2018-09-30T00:06:29.502Z,5.67
2018-09-30T00:08:56.984Z,5.83
2018-09-30T00:11:24.502Z,4.58
2018-09-30T00:13:51.974Z,5.27
2018-09-30T00:16:19.883Z,5.10
2018-09-30T00:18:47.178Z,6.03
2018-09-30T00:21:14.727Z,5.80
2018-09-30T00:23:48.807Z,5.50
2018-09-30T00:26:21.998Z,5.10
2018-09-30T00:28:49.398Z,5.15
2018-09-30T00:31:16.766Z,5.40
2018-09-30T00:33:49.785Z,5.72
2018-09-30T00:36:17.359Z,5.37
2018-09-30T00:38:44.789Z,5.13
2018-09-30T00:41:12.281Z,5.08
2018-09-30T00:43:39.774Z,5.50
2018-09-30T00:46:07.243Z,5.05
2018-09-30T00:48:34.918Z,5.00
2018-09-30T00:51:02.610Z,4.97
2018-09-30T00:53:30.062Z,4.55
2018-09-30T00:55:57.572Z,4.78
2018-09-30T00:58:25.058Z,4.80
2018-09-30T01:00:52.570Z,4.50
2018-09-30T01:03:21.483Z,5.55
2018-09-30T01:05:48.794Z,4.65
2018-09-30T01:08:16.158Z,4.85
2018-09-30T01:10:45.578Z,4.75
2018-09-30T01:13:12.880Z,5.05
2018-09-30T01:15:40.166Z,4.70
2018-09-30T01:18:07.455Z,4.85
2018-09-30T01:20:35.231Z,5.50
2018-09-30T01:23:02.514Z,5.42
2018-09-30T01:25:29.817Z,5.60
2018-09-30T01:27:57.646Z,5.08
2018-09-30T01:30:24.954Z,5.08
2018-09-30T01:32:52.270Z,4.78
2018-09-30T01:35:19.739Z,5.20
2018-09-30T01:37:47.252Z,4.78
2018-09-30T01:40:14.783Z,5.50
2018-09-30T01:42:42.466Z,5.60
2018-09-30T01:45:09.934Z,4.70
2018-09-30T01:47:37.473Z,5.40
2018-09-30T01:50:04.990Z,4.30
2018-09-30T01:52:46.538Z,5.72
2018-09-30T01:55:13.826Z,4.40
2018-09-30T01:57:41.162Z,5.10
2018-09-30T02:00:08.673Z,5.75
2018-09-30T02:02:36.094Z,4.78
2018-09-30T02:05:03.417Z,5.33
2018-09-30T02:07:30.814Z,4.60
2018-09-30T02:09:58.091Z,4.40
2018-09-30T02:12:25.642Z,5.35
2018-09-30T02:14:52.923Z,4.53
2018-09-30T02:17:20.198Z,4.40
2018-09-30T02:19:47.510Z,5.08
2018-09-30T02:22:14.866Z,4.50
2018-09-30T02:24:43.019Z,4.70
2018-09-30T02:27:10.302Z,4.80
2018-09-30T02:29:37.634Z,4.70
2018-09-30T02:32:04.967Z,4.67
2018-09-30T02:34:32.457Z,4.70
2018-09-30T02:36:59.917Z,4.20
2018-09-30T02:39:27.416Z,3.20
2018-09-30T02:41:54.909Z,4.05
2018-09-30T02:44:22.426Z,4.08
2018-09-30T02:46:50.294Z,3.08
2018-09-30T02:49:17.910Z,3.98
2018-09-30T02:51:45.411Z,3.75
2018-09-30T02:54:12.963Z,3.42
2018-09-30T02:56:40.423Z,3.37
2018-09-30T02:59:07.918Z,2.98
2018-09-30T03:01:35.422Z,3.02
2018-09-30T03:04:02.947Z,3.17
2018-09-30T03:06:36.035Z,3.62
2018-09-30T03:09:14.461Z,2.90
2018-09-30T03:11:42.118Z,2.90
2018-09-30T03:14:10.177Z,3.50
2018-09-30T03:16:37.577Z,3.35
2018-09-30T03:19:04.970Z,3.60
2018-09-30T03:21:32.247Z,3.45
2018-09-30T03:23:59.522Z,3.20
2018-09-30T03:26:26.801Z,3.35
2018-09-30T03:28:54.091Z,3.10
2018-09-30T03:31:21.382Z,4.47
2018-09-30T03:33:48.858Z,3.25
2018-09-30T03:36:16.222Z,3.60
2018-09-30T03:38:43.591Z,3.55
2018-09-30T03:41:10.890Z,2.90
2018-09-30T03:43:38.266Z,3.72
2018-09-30T03:46:05.729Z,3.35
2018-09-30T03:48:33.228Z,3.30
2018-09-30T03:51:00.707Z,3.27
2018-09-30T03:53:28.162Z,2.92
2018-09-30T03:55:55.674Z,3.17
2018-09-30T03:58:23.176Z,3.30
2018-09-30T04:00:50.658Z,3.27
2018-09-30T04:03:18.346Z,3.37
2018-09-30T04:05:45.995Z,3.60
2018-09-30T04:08:13.465Z,3.30
2018-09-30T04:10:40.992Z,4.12
2018-09-30T04:13:08.462Z,3.47
2018-09-30T04:15:36.022Z,2.95
2018-09-30T04:18:03.515Z,2.80
2018-09-30T04:20:31.011Z,3.98
2018-09-30T04:22:58.531Z,3.30
2018-09-30T04:25:26.023Z,4.20
2018-09-30T04:27:53.522Z,3.17
2018-09-30T04:30:21.276Z,3.35
2018-09-30T04:32:48.725Z,3.90
2018-09-30T04:35:16.203Z,4.35
2018-09-30T04:37:43.642Z,3.72
2018-09-30T04:40:11.143Z,3.55
2018-09-30T04:42:38.640Z,3.70
2018-09-30T04:45:06.187Z,3.37
2018-09-30T04:47:34.340Z,3.30
2018-09-30T04:50:01.680Z,3.40
2018-09-30T04:52:30.285Z,4.75
2018-09-30T04:57:45.083Z,4.17
2018-09-30T05:00:14.214Z,4.12
2018-09-30T05:02:41.744Z,4.00
2018-09-30T05:05:09.039Z,4.15
2018-09-30T05:07:36.358Z,4.05
2018-09-30T05:10:03.715Z,4.37
2018-09-30T05:12:31.423Z,3.35
2018-09-30T05:14:59.083Z,3.95
2018-09-30T05:17:27.361Z,3.80
2018-09-30T05:19:55.575Z,4.03
2018-09-30T05:22:23.413Z,3.35
2018-09-30T05:24:50.857Z,3.92
2018-09-30T05:27:18.153Z,4.00
2018-09-30T05:29:45.434Z,4.75
2018-09-30T05:32:13.264Z,3.58
2018-09-30T05:34:41.070Z,3.83
2018-09-30T05:37:08.863Z,3.37
2018-09-30T05:39:36.684Z,3.83
2018-09-30T05:42:04.491Z,4.25
2018-09-30T05:44:32.173Z,3.83
2018-09-30T05:46:59.655Z,4.03
2018-09-30T05:49:27.082Z,3.20
2018-09-30T05:51:54.362Z,4.00
2018-09-30T05:54:21.741Z,3.47
2018-09-30T05:56:49.314Z,3.55
2018-09-30T05:59:16.605Z,4.30
2018-09-30T06:01:43.880Z,3.77
2018-09-30T06:04:11.176Z,3.70
2018-09-30T06:06:39.034Z,3.80
2018-09-30T06:09:10.251Z,4.20
2018-09-30T06:11:37.449Z,3.80
2018-09-30T06:14:04.883Z,4.90
2018-09-30T06:16:32.008Z,3.52
2018-09-30T06:18:59.257Z,3.75
2018-09-30T06:21:26.858Z,4.55
2018-09-30T06:23:54.109Z,3.95
2018-09-30T06:26:21.464Z,4.53
2018-09-30T06:28:48.710Z,4.20
2018-09-30T06:31:15.998Z,4.42
2018-09-30T06:33:43.418Z,4.65
2018-09-30T06:36:10.833Z,4.60
2018-09-30T06:38:38.082Z,5.25
2018-09-30T06:41:05.383Z,4.33
2018-09-30T06:43:32.884Z,4.60
2018-09-30T06:46:00.142Z,4.22
2018-09-30T06:48:27.494Z,4.03
2018-09-30T06:50:55.242Z,4.55
2018-09-30T06:53:22.561Z,5.10
2018-09-30T06:55:49.867Z,5.37
2018-09-30T06:58:17.585Z,4.92
2018-09-30T07:00:44.853Z,5.53
2018-09-30T07:03:12.107Z,4.60
2018-09-30T07:05:39.382Z,5.22
2018-09-30T07:08:06.677Z,6.37
2018-09-30T07:10:33.942Z,5.25
2018-09-30T07:13:01.223Z,4.80
2018-09-30T07:15:28.489Z,5.40
2018-09-30T07:17:56.058Z,5.93
2018-09-30T07:20:23.463Z,5.80
2018-09-30T07:22:50.918Z,6.00
2018-09-30T07:25:18.103Z,5.70
2018-09-30T07:27:45.373Z,5.60
2018-09-30T07:30:12.623Z,4.23
2018-09-30T07:32:39.904Z,5.00
2018-09-30T07:35:07.233Z,5.07
2018-09-30T07:37:34.526Z,5.47
2018-09-30T07:40:01.846Z,5.20
2018-09-30T07:42:29.216Z,4.97
2018-09-30T07:44:56.508Z,4.43
2018-09-30T07:47:25.381Z,4.20
2018-09-30T07:49:52.664Z,5.03
2018-09-30T07:52:19.950Z,4.10
2018-09-30T07:54:47.250Z,4.50
2018-09-30T07:57:14.557Z,3.73
2018-09-30T07:59:41.972Z,3.50
2018-09-30T08:02:09.296Z,3.57
2018-09-30T08:04:36.686Z,4.63
2018-09-30T08:07:04.061Z,3.77
2018-09-30T08:09:31.452Z,4.60
2018-09-30T08:11:58.754Z,3.37
2018-09-30T08:14:26.087Z,3.73
2018-09-30T08:16:53.766Z,3.83
2018-09-30T08:19:20.966Z,3.83
2018-09-30T08:21:48.278Z,3.40
2018-09-30T08:24:15.751Z,3.50
2018-09-30T08:26:43.054Z,2.77
2018-09-30T08:29:10.329Z,1.80
2018-09-30T08:31:37.797Z,2.70
2018-09-30T08:34:05.190Z,2.10
2018-09-30T08:36:33.327Z,2.10
2018-09-30T08:39:00.604Z,2.80
2018-09-30T08:41:27.926Z,2.10
2018-09-30T08:43:55.336Z,1.97
2018-09-30T08:46:22.635Z,2.27
2018-09-30T08:48:49.950Z,1.80
2018-09-30T08:51:17.246Z,2.60
2018-09-30T08:53:44.679Z,2.00
2018-09-30T08:56:12.272Z,2.10
2018-09-30T08:58:39.537Z,1.60
2018-09-30T09:01:06.846Z,2.10
2018-09-30T09:03:34.140Z,2.20
2018-09-30T09:06:01.844Z,2.43
2018-09-30T09:08:30.186Z,1.73
2018-09-30T09:10:57.544Z,2.67
2018-09-30T09:13:24.811Z,2.03
2018-09-30T09:15:52.078Z,1.90
2018-09-30T09:18:19.363Z,2.50
2018-09-30T09:20:46.782Z,2.40
2018-09-30T09:23:14.078Z,2.30
2018-09-30T09:25:41.786Z,2.17
2018-09-30T09:28:09.507Z,2.50
2018-09-30T09:30:36.782Z,1.90
2018-09-30T09:33:04.278Z,2.47
2018-09-30T09:35:31.787Z,2.70
2018-09-30T09:37:59.248Z,2.60
2018-09-30T09:40:28.002Z,2.80
2018-09-30T09:42:55.459Z,2.50
2018-09-30T09:45:22.991Z,2.20
2018-09-30T09:47:50.474Z,2.33
2018-09-30T09:50:18.002Z,2.53
2018-09-30T09:52:45.470Z,2.50
2018-09-30T09:55:12.940Z,2.70
2018-09-30T09:57:40.536Z,2.30
2018-09-30T10:00:11.018Z,3.13
2018-09-30T10:02:39.102Z,3.20
2018-09-30T10:05:06.671Z,2.77
2018-09-30T10:07:34.125Z,3.00
2018-09-30T10:10:02.403Z,2.60
2018-09-30T10:12:29.706Z,2.60
2018-09-30T10:14:57.209Z,2.30
2018-09-30T10:17:24.487Z,2.47
2018-09-30T10:19:51.784Z,3.27
2018-09-30T10:22:19.271Z,2.10
2018-09-30T10:24:46.746Z,2.40
2018-09-30T10:27:15.534Z,2.50
2018-09-30T10:29:44.025Z,2.00
2018-09-30T10:32:11.297Z,2.50
2018-09-30T10:34:38.582Z,3.00
2018-09-30T10:37:05.862Z,2.20
2018-09-30T10:39:33.145Z,2.90
2018-09-30T10:42:00.406Z,2.43
2018-09-30T10:44:29.510Z,2.33
2018-09-30T10:46:56.794Z,1.97
2018-09-30T10:49:24.128Z,1.70
2018-09-30T10:51:51.393Z,2.03
2018-09-30T10:54:18.831Z,2.80
2018-09-30T10:56:46.344Z,1.83
2018-09-30T10:59:18.210Z,1.97
2018-09-30T11:01:45.450Z,1.83
2018-09-30T11:04:12.730Z,1.90
2018-09-30T11:06:40.112Z,2.03
2018-09-30T11:09:07.658Z,2.60
2018-09-30T11:11:34.933Z,2.33
2018-09-30T11:14:04.245Z,1.97
2018-09-30T11:16:31.551Z,2.50
2018-09-30T11:18:58.831Z,1.93
2018-09-30T11:21:26.090Z,2.07
2018-09-30T11:23:53.350Z,2.70
2018-09-30T11:26:20.647Z,2.50
2018-09-30T11:28:49.636Z,1.80
2018-09-30T11:31:16.894Z,2.40
2018-09-30T11:33:44.170Z,1.83
2018-09-30T11:36:11.463Z,2.67
2018-09-30T11:38:38.738Z,2.10
2018-09-30T11:41:06.049Z,2.53
2018-09-30T11:43:34.994Z,1.80
2018-09-30T11:46:03.109Z,2.17
2018-09-30T11:48:30.409Z,2.00
2018-09-30T11:50:57.673Z,1.80
2018-09-30T11:53:24.925Z,1.97
2018-09-30T11:55:52.570Z,2.57
2018-09-30T11:58:20.031Z,2.40
2018-09-30T12:00:50.008Z,2.30
2018-09-30T12:03:17.463Z,2.67
2018-09-30T12:05:44.977Z,1.73
2018-09-30T12:08:12.729Z,2.30
2018-09-30T12:10:40.180Z,1.60
2018-09-30T12:13:07.631Z,2.00
2018-09-30T12:15:35.142Z,2.10
2018-09-30T12:18:03.488Z,2.30
2018-09-30T12:20:31.006Z,2.37
2018-09-30T12:22:58.457Z,2.20
2018-09-30T12:25:25.957Z,2.07
2018-09-30T12:27:53.502Z,2.27
2018-09-30T12:30:21.038Z,2.20
2018-09-30T12:32:48.502Z,2.57
2018-09-30T12:35:16.025Z,2.30
2018-09-30T12:37:43.550Z,2.40
2018-09-30T12:40:11.059Z,2.13
2018-09-30T12:42:38.797Z,2.07
2018-09-30T12:45:06.287Z,2.03
2018-09-30T12:47:33.738Z,2.07
2018-09-30T12:50:01.178Z,2.60
2018-09-30T12:52:28.646Z,2.20
2018-09-30T12:54:56.121Z,2.20
2018-09-30T12:57:23.562Z,2.23
2018-09-30T12:59:51.048Z,1.87
2018-09-30T13:02:18.516Z,3.63
2018-09-30T13:04:45.989Z,2.10
2018-09-30T13:07:13.424Z,3.03
2018-09-30T13:09:44.318Z,2.10
2018-09-30T13:12:12.969Z,2.13
2018-09-30T13:14:41.220Z,2.77
2018-09-30T13:17:08.656Z,1.83
2018-09-30T13:19:36.118Z,1.60
2018-09-30T13:22:08.317Z,2.17
2018-09-30T13:24:35.849Z,2.63
2018-09-30T13:27:03.324Z,1.97
2018-09-30T13:29:30.801Z,2.30
2018-09-30T13:31:58.226Z,2.00
2018-09-30T13:36:58.189Z,1.80
2018-09-30T13:39:25.678Z,2.03
2018-09-30T13:41:53.163Z,1.80
2018-09-30T13:44:20.674Z,1.90
2018-09-30T13:46:48.170Z,1.50
2018-09-30T13:49:17.308Z,2.63
2018-09-30T13:51:44.736Z,2.27
2018-09-30T13:54:12.232Z,2.20
2018-09-30T13:56:39.709Z,2.30
2018-09-30T13:59:07.157Z,2.67
2018-09-30T14:01:35.714Z,1.80
2018-09-30T14:04:05.030Z,1.80
2018-09-30T14:06:32.597Z,1.77
2018-09-30T14:09:00.071Z,2.07
2018-09-30T14:11:34.213Z,1.80
2018-09-30T14:14:06.362Z,2.73
2018-09-30T14:16:33.856Z,2.60
2018-09-30T14:19:01.317Z,2.23
2018-09-30T14:21:28.766Z,2.70
2018-09-30T14:23:56.223Z,2.77
2018-09-30T14:26:23.682Z,2.40
2018-09-30T14:28:51.193Z,2.30
2018-09-30T14:31:20.195Z,1.90
2018-09-30T14:33:47.641Z,2.93
2018-09-30T14:36:15.085Z,2.60
2018-09-30T14:38:42.642Z,2.80
2018-09-30T14:41:10.243Z,2.77
2018-09-30T14:43:41.758Z,4.30
2018-09-30T14:46:09.235Z,2.90
2018-09-30T14:48:36.724Z,3.00
2018-09-30T14:51:04.178Z,3.27
2018-09-30T14:53:31.630Z,2.70
2018-09-30T14:55:59.148Z,3.00
2018-09-30T14:58:28.571Z,2.80
2018-09-30T15:00:56.056Z,3.93
2018-09-30T15:03:23.546Z,3.90
2018-09-30T15:05:51.045Z,3.70
2018-09-30T15:08:18.703Z,5.10
2018-09-30T15:10:46.213Z,3.67
2018-09-30T15:13:16.216Z,3.53
2018-09-30T15:15:43.762Z,3.60
2018-09-30T15:18:11.470Z,3.87
2018-09-30T15:20:38.980Z,3.90
2018-09-30T15:23:06.638Z,4.80
2018-09-30T15:25:35.241Z,4.33
2018-09-30T15:28:05.110Z,3.93
2018-09-30T15:30:32.610Z,4.60
2018-09-30T15:33:00.101Z,4.47
2018-09-30T15:35:27.604Z,5.10
2018-09-30T15:37:55.071Z,5.60
2018-09-30T15:40:27.473Z,5.00
2018-09-30T15:42:54.979Z,4.53
2018-09-30T15:45:22.481Z,5.07
2018-09-30T15:47:49.924Z,4.20
2018-09-30T15:50:17.386Z,5.03
2018-09-30T15:52:44.847Z,5.43
2018-09-30T15:55:16.575Z,6.33
2018-09-30T15:57:44.152Z,5.53
2018-09-30T16:00:12.052Z,4.67
2018-09-30T16:02:40.062Z,4.63
2018-09-30T16:05:07.529Z,5.27
2018-09-30T16:07:38.258Z,4.90
2018-09-30T16:10:05.767Z,5.00
2018-09-30T16:12:33.488Z,4.73
2018-09-30T16:15:01.048Z,4.60
2018-09-30T16:17:28.602Z,4.33
2018-09-30T16:20:01.303Z,4.37
2018-09-30T16:22:28.834Z,4.47
2018-09-30T16:24:57.493Z,4.40
2018-09-30T16:27:24.937Z,4.60
2018-09-30T16:29:58.214Z,4.83
2018-09-30T16:32:25.705Z,4.10
2018-09-30T16:34:53.198Z,3.77
2018-09-30T16:37:20.712Z,4.20
2018-09-30T16:39:48.250Z,5.30
2018-09-30T16:42:16.170Z,4.80
2018-09-30T16:44:43.780Z,4.50
2018-09-30T16:47:11.257Z,3.80
2018-09-30T16:49:38.739Z,6.90
2018-09-30T16:52:06.256Z,8.27
2018-09-30T16:54:33.745Z,7.90
2018-09-30T16:57:01.292Z,6.13
2018-09-30T16:59:28.751Z,5.43
2018-09-30T17:01:56.339Z,4.30
2018-09-30T17:04:23.815Z,4.80
2018-09-30T17:06:51.505Z,4.93
2018-09-30T17:09:18.919Z,4.10
2018-09-30T17:11:46.429Z,4.43
2018-09-30T17:14:14.185Z,5.40
2018-09-30T17:16:41.719Z,3.80
2018-09-30T17:19:09.234Z,3.70
2018-09-30T17:21:36.871Z,3.90
2018-09-30T17:24:04.346Z,4.67
2018-09-30T17:26:31.838Z,4.77
2018-09-30T17:28:59.330Z,5.27
2018-09-30T17:31:26.927Z,5.10
2018-09-30T17:33:54.504Z,4.40
2018-09-30T17:36:23.018Z,4.77
2018-09-30T17:38:50.531Z,4.53
2018-09-30T17:41:18.033Z,4.60
2018-09-30T17:43:45.617Z,5.50
2018-09-30T17:46:13.120Z,4.80
2018-09-30T17:48:40.657Z,4.97
2018-09-30T17:51:08.173Z,5.50
2018-09-30T17:53:35.725Z,6.30
2018-09-30T17:56:03.534Z,5.57
2018-09-30T17:58:31.105Z,5.50
2018-09-30T18:00:58.685Z,5.90
2018-09-30T18:03:26.239Z,5.90
2018-09-30T18:05:53.796Z,5.73
2018-09-30T18:08:21.437Z,7.20
2018-09-30T18:10:48.965Z,6.40
2018-09-30T18:13:16.543Z,6.90
2018-09-30T18:15:44.167Z,7.03
2018-09-30T18:18:11.780Z,7.80
2018-09-30T18:20:39.289Z,8.40
2018-09-30T18:23:06.888Z,7.87
2018-09-30T18:25:34.451Z,7.90
2018-09-30T18:28:01.960Z,8.47
2018-09-30T18:30:29.475Z,7.70
2018-09-30T18:32:57.401Z,7.80
2018-09-30T18:35:25.006Z,8.03
2018-09-30T18:37:52.678Z,7.37
2018-09-30T18:40:20.280Z,7.90
2018-09-30T18:42:47.786Z,8.50
2018-09-30T18:45:15.432Z,8.73
2018-09-30T18:47:43.105Z,7.33
2018-09-30T18:50:10.697Z,6.50
2018-09-30T18:52:38.258Z,8.40
2018-09-30T18:55:05.824Z,8.87
2018-09-30T18:57:33.556Z,7.70
2018-09-30T19:00:01.083Z,7.13
2018-09-30T19:02:28.638Z,8.20
2018-09-30T19:04:56.126Z,8.57
2018-09-30T19:07:23.814Z,6.93
2018-09-30T19:09:51.347Z,6.50
2018-09-30T19:12:18.986Z,8.00
2018-09-30T19:14:46.490Z,7.50
2018-09-30T19:17:13.954Z,6.53
2018-09-30T19:19:41.414Z,7.13
2018-09-30T19:22:08.927Z,8.40
2018-09-30T19:24:36.406Z,7.37
2018-09-30T19:27:03.939Z,7.90
2018-09-30T19:29:32.246Z,8.20
2018-09-30T19:31:59.715Z,8.50
2018-09-30T19:34:28.226Z,7.87
2018-09-30T19:36:55.694Z,7.83
2018-09-30T19:39:23.143Z,7.10
2018-09-30T19:41:50.768Z,8.10
2018-09-30T19:44:18.521Z,7.87
2018-09-30T19:46:46.065Z,7.57
2018-09-30T19:49:13.651Z,7.40
2018-09-30T19:51:41.214Z,6.03
2018-09-30T19:54:08.773Z,6.40
2018-09-30T19:56:36.195Z,7.40
2018-09-30T19:59:03.742Z,6.70
2018-09-30T20:01:31.202Z,6.97
2018-09-30T20:03:58.862Z,7.50
2018-09-30T20:06:29.833Z,8.40
2018-09-30T20:08:57.363Z,7.50
2018-09-30T20:11:24.929Z,7.20
2018-09-30T20:13:52.367Z,7.40
2018-09-30T20:16:20.002Z,6.83
2018-09-30T20:18:47.491Z,8.20
2018-09-30T20:21:15.023Z,7.50
2018-09-30T20:23:42.626Z,8.87
2018-09-30T20:26:10.092Z,8.90
2018-09-30T20:28:37.605Z,8.00
2018-09-30T20:31:05.119Z,8.87
2018-09-30T20:33:32.598Z,7.60
2018-09-30T20:36:00.122Z,8.37
2018-09-30T20:38:27.739Z,7.77
2018-09-30T20:40:55.325Z,8.90
2018-09-30T20:43:22.878Z,8.27
2018-09-30T20:45:50.689Z,7.80
2018-09-30T20:48:18.638Z,7.67
2018-09-30T20:50:46.170Z,7.03
2018-09-30T20:53:13.790Z,8.13
2018-09-30T20:55:41.474Z,7.47
2018-09-30T20:58:08.980Z,7.97
2018-09-30T21:00:36.520Z,7.60
2018-09-30T21:03:03.999Z,8.10
2018-09-30T21:06:40.171Z,7.50
2018-09-30T21:09:10.618Z,7.40
2018-09-30T21:11:37.899Z,9.00
2018-09-30T21:14:05.358Z,8.30
2018-09-30T21:16:32.826Z,7.80
2018-09-30T21:19:00.112Z,7.70
2018-09-30T21:21:27.386Z,8.30
2018-09-30T21:23:54.747Z,8.40
2018-09-30T21:26:22.117Z,7.70
2018-09-30T21:28:49.405Z,7.93
2018-09-30T21:31:16.762Z,8.80
2018-09-30T21:33:44.167Z,8.93
2018-09-30T21:36:11.568Z,7.20
2018-09-30T21:38:38.915Z,8.00
2018-09-30T21:41:06.309Z,8.33
2018-09-30T21:43:33.584Z,7.90
2018-09-30T21:46:00.894Z,7.90
2018-09-30T21:48:28.290Z,8.40
2018-09-30T21:50:55.670Z,8.97
2018-09-30T21:53:23.091Z,9.10
2018-09-30T21:55:50.402Z,7.83
2018-09-30T21:58:17.697Z,8.83
2018-09-30T22:00:50.689Z,8.17
2018-09-30T22:03:18.178Z,8.97
2018-09-30T22:05:45.660Z,8.07
2018-09-30T22:08:13.110Z,9.00
2018-09-30T22:10:41.254Z,9.30
2018-09-30T22:13:09.619Z,9.00
2018-09-30T22:15:37.161Z,9.40
2018-09-30T22:18:04.950Z,9.70
2018-09-30T22:20:32.404Z,9.07
2018-09-30T22:22:59.884Z,9.30
2018-09-30T22:25:27.542Z,9.33
2018-09-30T22:27:55.037Z,9.20
2018-09-30T22:30:22.583Z,9.60
2018-09-30T22:32:50.075Z,8.93
2018-09-30T22:35:17.596Z,9.43
2018-09-30T22:37:45.669Z,8.80
2018-09-30T22:40:13.248Z,8.97
2018-09-30T22:42:40.783Z,8.50
2018-09-30T22:45:08.237Z,9.50
2018-09-30T22:47:36.199Z,10.03
2018-09-30T22:50:03.910Z,9.50
2018-09-30T22:52:31.366Z,9.53
2018-09-30T22:54:58.830Z,8.97
2018-09-30T22:57:26.429Z,9.10
2018-09-30T22:59:53.895Z,9.77
2018-09-30T23:02:21.378Z,9.00
2018-09-30T23:04:48.927Z,9.03
2018-09-30T23:07:16.430Z,9.77
2018-09-30T23:09:44.257Z,9.40
2018-09-30T23:12:11.723Z,9.93
2018-09-30T23:14:39.179Z,9.97
2018-09-30T23:17:07.294Z,9.83
2018-09-30T23:19:36.430Z,9.20
2018-09-30T23:22:04.046Z,8.30
2018-09-30T23:24:32.620Z,8.53
2018-09-30T23:27:00.130Z,9.13
2018-09-30T23:29:27.643Z,9.40
2018-09-30T23:31:55.157Z,8.43
2018-09-30T23:34:22.830Z,8.80
2018-09-30T23:36:50.476Z,9.30
2018-09-30T23:39:17.958Z,7.90
2018-09-30T23:41:45.623Z,9.10
2018-09-30T23:44:13.102Z,7.83
2018-09-30T23:46:40.651Z,7.77
2018-09-30T23:49:08.107Z,8.00
2018-09-30T23:51:35.587Z,8.20
2018-09-30T23:54:03.105Z,9.37
2018-09-30T23:56:30.586Z,7.50
2018-09-30T23:58:58.081Z,7.27
